createdAt,value
2018-02-19T00:00:16.775Z,0.20
2018-02-19T00:02:43.780Z,0.20
2018-02-19T00:05:10.083Z,0.10
2018-02-19T00:07:36.371Z,0.20
2018-02-19T00:10:02.644Z,0.10
2018-02-19T00:12:28.917Z,0.10
2018-02-19T00:14:55.170Z,0.10
2018-02-19T00:17:21.412Z,0.00
2018-02-19T00:19:47.652Z,0.00
2018-02-19T00:22:13.916Z,0.00
2018-02-19T00:24:40.924Z,0.00
2018-02-19T00:27:07.161Z,0.00
2018-02-19T00:29:33.461Z,0.00
2018-02-19T00:31:59.704Z,0.00
2018-02-19T00:34:25.980Z,0.00
2018-02-19T00:36:52.965Z,-0.10
2018-02-19T00:39:19.227Z,-0.10
2018-02-19T00:41:45.524Z,-0.10
2018-02-19T00:44:11.779Z,-0.10
2018-02-19T00:46:38.029Z,-0.10
2018-02-19T00:49:04.283Z,-0.10
2018-02-19T00:51:30.532Z,-0.20
2018-02-19T00:53:56.813Z,-0.20
2018-02-19T00:56:23.031Z,-0.20
2018-02-19T00:58:49.306Z,-0.20
2018-02-19T01:01:15.841Z,-0.30
2018-02-19T01:03:42.173Z,-0.30
2018-02-19T01:06:08.397Z,-0.30
2018-02-19T01:08:34.659Z,-0.20
2018-02-19T01:11:00.929Z,-0.30
2018-02-19T01:13:27.217Z,-0.40
2018-02-19T01:16:19.457Z,-0.40
2018-02-19T01:18:46.367Z,-0.40
2018-02-19T01:21:13.383Z,-0.50
2018-02-19T01:23:39.641Z,-0.50
2018-02-19T01:26:06.652Z,-0.60
2018-02-19T01:28:32.912Z,-0.60
2018-02-19T01:30:59.938Z,-0.70
2018-02-19T01:33:26.251Z,-0.70
2018-02-19T01:35:53.408Z,-0.70
2018-02-19T01:38:19.680Z,-0.80
2018-02-19T01:40:45.939Z,-0.80
2018-02-19T01:43:12.234Z,-0.80
2018-02-19T01:45:39.240Z,-0.90
2018-02-19T01:48:05.493Z,-0.90
2018-02-19T01:50:31.799Z,-1.00
2018-02-19T01:52:58.089Z,-0.90
2018-02-19T01:55:24.361Z,-0.90
2018-02-19T01:57:50.647Z,-0.90
2018-02-19T02:00:16.914Z,-0.90
2018-02-19T02:02:43.208Z,-0.90
2018-02-19T02:05:09.468Z,-0.90
2018-02-19T02:07:35.733Z,-0.90
2018-02-19T02:10:01.989Z,-1.00
2018-02-19T02:12:28.267Z,-1.00
2018-02-19T02:14:54.512Z,-1.00
2018-02-19T02:17:20.747Z,-1.10
2018-02-19T02:19:47.015Z,-1.00
2018-02-19T02:22:13.281Z,-1.00
2018-02-19T02:24:39.533Z,-1.00
2018-02-19T02:27:05.804Z,-1.10
2018-02-19T02:29:32.100Z,-1.00
2018-02-19T02:31:58.329Z,-1.10
2018-02-19T02:34:24.586Z,-1.10
2018-02-19T02:36:50.840Z,-1.10
2018-02-19T02:39:17.094Z,-1.20
2018-02-19T02:41:44.062Z,-1.20
2018-02-19T02:44:11.061Z,-1.30
2018-02-19T02:46:38.313Z,-1.30
2018-02-19T02:49:04.628Z,-1.30
2018-02-19T02:51:30.866Z,-1.30
2018-02-19T02:53:57.201Z,-1.30
2018-02-19T02:56:23.472Z,-1.20
2018-02-19T02:58:49.820Z,-1.20
2018-02-19T03:01:16.853Z,-1.30
2018-02-19T03:03:43.173Z,-1.40
2018-02-19T03:06:09.483Z,-1.50
2018-02-19T03:08:35.719Z,-1.60
2018-02-19T03:11:01.989Z,-1.50
2018-02-19T03:13:29.014Z,-1.60
2018-02-19T03:15:55.246Z,-1.60
2018-02-19T03:18:21.527Z,-1.60
2018-02-19T03:20:47.782Z,-1.70
2018-02-19T03:23:14.088Z,-1.60
2018-02-19T03:25:40.335Z,-1.60
2018-02-19T03:28:06.649Z,-1.60
2018-02-19T03:30:32.910Z,-1.60
2018-02-19T03:32:59.169Z,-1.60
2018-02-19T03:35:25.469Z,-1.60
2018-02-19T03:37:51.762Z,-1.60
2018-02-19T03:40:18.020Z,-1.70
2018-02-19T03:42:44.287Z,-1.70
2018-02-19T03:45:10.565Z,-1.80
2018-02-19T03:47:36.839Z,-1.70
2018-02-19T03:50:03.131Z,-1.70
2018-02-19T03:52:29.408Z,-1.70
2018-02-19T03:54:55.688Z,-1.70
2018-02-19T03:57:21.981Z,-1.70
2018-02-19T03:59:48.974Z,-1.80
2018-02-19T04:02:15.303Z,-1.80
2018-02-19T04:04:41.549Z,-1.80
2018-02-19T04:07:07.782Z,-1.70
2018-02-19T04:09:34.064Z,-1.70
2018-02-19T04:12:00.294Z,-1.70
2018-02-19T04:17:05.465Z,-1.70
2018-02-19T04:19:31.810Z,-1.80
2018-02-19T04:21:58.127Z,-1.70
2018-02-19T04:24:24.455Z,-1.70
2018-02-19T04:26:50.834Z,-1.70
2018-02-19T04:29:17.115Z,-1.70
2018-02-19T04:31:43.469Z,-1.80
2018-02-19T04:34:09.783Z,-1.80
2018-02-19T04:36:36.033Z,-1.80
2018-02-19T04:39:03.041Z,-1.90
2018-02-19T04:41:30.032Z,-2.00
2018-02-19T04:43:56.305Z,-2.00
2018-02-19T04:46:38.290Z,-1.90
2018-02-19T04:49:04.548Z,-1.90
2018-02-19T04:51:30.874Z,-1.90
2018-02-19T04:53:57.119Z,-2.00
2018-02-19T04:56:30.379Z,-2.00
2018-02-19T04:58:57.389Z,-2.10
2018-02-19T05:01:23.676Z,-2.10
2018-02-19T05:03:50.491Z,-2.20
2018-02-19T05:06:17.503Z,-2.30
2018-02-19T05:08:43.789Z,-2.30
2018-02-19T05:11:10.834Z,-2.30
2018-02-19T05:13:37.868Z,-2.30
2018-02-19T05:16:04.128Z,-2.30
2018-02-19T05:18:30.429Z,-2.30
2018-02-19T05:20:56.694Z,-2.40
2018-02-19T05:23:22.999Z,-2.40
2018-02-19T05:25:50.016Z,-2.40
2018-02-19T05:28:16.303Z,-2.40
2018-02-19T05:30:42.578Z,-2.40
2018-02-19T05:33:08.843Z,-2.40
2018-02-19T05:35:35.904Z,-2.50
2018-02-19T05:38:02.241Z,-2.50
2018-02-19T05:40:28.561Z,-2.50
2018-02-19T05:42:54.873Z,-2.50
2018-02-19T05:45:21.917Z,-2.40
2018-02-19T05:47:48.949Z,-2.30
2018-02-19T05:50:15.203Z,-2.40
2018-02-19T05:52:42.208Z,-2.30
2018-02-19T05:55:08.482Z,-2.30
2018-02-19T05:57:35.485Z,-2.30
2018-02-19T06:00:01.742Z,-2.30
2018-02-19T06:02:28.002Z,-2.30
2018-02-19T06:04:54.256Z,-2.30
2018-02-19T06:07:20.504Z,-2.40
2018-02-19T06:09:46.788Z,-2.40
2018-02-19T06:12:13.054Z,-2.30
2018-02-19T06:14:40.078Z,-2.30
2018-02-19T06:17:06.349Z,-2.40
2018-02-19T06:19:39.499Z,-2.50
2018-02-19T06:22:05.819Z,-2.50
2018-02-19T06:24:32.126Z,-2.50
2018-02-19T06:26:59.167Z,-2.40
2018-02-19T06:29:26.173Z,-2.40
2018-02-19T06:31:52.448Z,-2.40
2018-02-19T06:34:19.444Z,-2.20
2018-02-19T06:36:45.683Z,-2.30
2018-02-19T06:39:12.012Z,-2.10
2018-02-19T06:41:38.282Z,-2.00
2018-02-19T06:44:04.561Z,-1.90
2018-02-19T06:46:30.844Z,-1.80
2018-02-19T06:48:57.993Z,-1.60
2018-02-19T06:51:24.318Z,-1.60
2018-02-19T06:53:50.581Z,-1.60
2018-02-19T06:56:16.870Z,-1.50
2018-02-19T06:58:43.099Z,-1.40
2018-02-19T07:01:09.371Z,-1.50
2018-02-19T07:03:35.677Z,-1.40
2018-02-19T07:06:01.935Z,-1.40
2018-02-19T07:08:28.223Z,-1.40
2018-02-19T07:10:54.505Z,-1.30
2018-02-19T07:13:20.773Z,-1.20
2018-02-19T07:15:47.029Z,-0.90
2018-02-19T07:18:14.034Z,-0.60
2018-02-19T07:20:40.337Z,-0.70
2018-02-19T07:23:06.611Z,-0.60
2018-02-19T07:25:32.853Z,-0.60
2018-02-19T07:27:59.126Z,-0.50
2018-02-19T07:30:25.393Z,-0.30
2018-02-19T07:32:51.772Z,-0.30
2018-02-19T07:35:18.802Z,-0.30
2018-02-19T07:37:45.854Z,-0.10
2018-02-19T07:40:12.902Z,0.00
2018-02-19T07:42:55.263Z,-0.10
2018-02-19T07:45:24.330Z,-0.10
2018-02-19T07:47:50.832Z,-0.10
2018-02-19T07:50:17.117Z,0.10
2018-02-19T07:52:43.418Z,0.10
2018-02-19T07:55:09.711Z,0.30
2018-02-19T07:57:35.961Z,0.40
2018-02-19T08:00:02.218Z,0.60
2018-02-19T08:02:28.566Z,0.60
2018-02-19T08:04:55.579Z,0.80
2018-02-19T08:07:21.850Z,0.70
2018-02-19T08:09:48.096Z,0.90
2018-02-19T08:12:14.420Z,1.20
2018-02-19T08:14:40.716Z,1.40
2018-02-19T08:17:06.996Z,1.50
2018-02-19T08:19:33.281Z,1.50
2018-02-19T08:21:59.576Z,1.80
2018-02-19T08:24:26.586Z,2.30
2018-02-19T08:26:52.878Z,2.20
2018-02-19T08:29:19.175Z,2.70
2018-02-19T08:31:45.463Z,2.90
2018-02-19T08:34:11.742Z,2.80
2018-02-19T08:36:38.783Z,2.80
2018-02-19T08:39:05.058Z,2.80
2018-02-19T08:41:31.329Z,3.20
2018-02-19T08:43:57.609Z,3.40
2018-02-19T08:46:23.905Z,3.50
2018-02-19T08:48:50.991Z,3.80
2018-02-19T08:51:17.282Z,3.80
2018-02-19T08:53:43.615Z,3.90
2018-02-19T08:56:10.628Z,3.80
2018-02-19T08:58:36.910Z,3.80
2018-02-19T09:01:03.960Z,4.10
2018-02-19T09:03:30.264Z,4.00
2018-02-19T09:05:56.548Z,4.20
2018-02-19T09:08:22.866Z,4.30
2018-02-19T09:10:49.126Z,4.20
2018-02-19T09:13:16.475Z,3.90
2018-02-19T09:15:42.819Z,3.90
2018-02-19T09:18:09.052Z,3.90
2018-02-19T09:20:35.299Z,4.30
2018-02-19T09:23:01.523Z,4.90
2018-02-19T09:25:27.894Z,4.80
2018-02-19T09:27:54.131Z,4.50
2018-02-19T09:30:20.397Z,4.70
2018-02-19T09:32:46.641Z,5.10
2018-02-19T09:35:12.902Z,5.40
2018-02-19T09:37:39.901Z,6.10
2018-02-19T09:40:06.154Z,6.10
2018-02-19T09:42:32.476Z,6.10
2018-02-19T09:44:58.739Z,6.30
2018-02-19T09:47:25.752Z,5.60
2018-02-19T09:49:52.002Z,5.50
2018-02-19T09:52:18.223Z,5.60
2018-02-19T09:54:44.466Z,5.60
2018-02-19T09:57:11.472Z,6.60
2018-02-19T09:59:37.760Z,6.60
2018-02-19T10:02:04.016Z,7.10
2018-02-19T10:04:30.282Z,7.30
2018-02-19T10:06:56.576Z,7.20
2018-02-19T10:09:22.872Z,6.90
2018-02-19T10:11:49.878Z,7.40
2018-02-19T10:14:16.138Z,7.40
2018-02-19T10:16:43.176Z,7.70
2018-02-19T10:19:09.417Z,7.70
2018-02-19T10:21:36.419Z,7.40
2018-02-19T10:24:02.731Z,7.40
2018-02-19T10:26:35.973Z,7.30
2018-02-19T10:29:02.276Z,7.50
2018-02-19T10:31:28.516Z,7.70
2018-02-19T10:33:54.768Z,7.70
2018-02-19T10:36:21.008Z,7.80
2018-02-19T10:38:48.032Z,7.60
2018-02-19T10:41:14.394Z,7.60
2018-02-19T10:43:40.718Z,7.60
2018-02-19T10:46:07.725Z,7.60
2018-02-19T10:48:34.063Z,7.60
2018-02-19T10:51:00.355Z,7.90
2018-02-19T10:53:26.615Z,8.20
2018-02-19T10:55:52.843Z,8.30
2018-02-19T10:58:19.123Z,8.20
2018-02-19T11:00:46.146Z,8.10
2018-02-19T11:03:12.477Z,8.10
2018-02-19T11:05:38.719Z,8.50
2018-02-19T11:08:05.717Z,8.60
2018-02-19T11:10:32.001Z,8.60
2018-02-19T11:12:59.032Z,9.10
2018-02-19T11:15:25.295Z,9.10
2018-02-19T11:17:51.574Z,7.80
2018-02-19T11:20:18.578Z,8.60
2018-02-19T11:22:44.905Z,8.60
2018-02-19T11:25:11.179Z,8.80
2018-02-19T11:27:37.516Z,8.80
2018-02-19T11:30:03.800Z,8.70
2018-02-19T11:32:30.040Z,8.50
2018-02-19T11:34:56.332Z,8.40
2018-02-19T11:37:23.409Z,9.40
2018-02-19T11:39:49.677Z,9.30
2018-02-19T11:42:15.956Z,10.40
2018-02-19T11:44:42.264Z,9.90
2018-02-19T11:47:09.285Z,10.70
2018-02-19T11:49:35.581Z,10.60
2018-02-19T11:52:01.869Z,10.80
2018-02-19T11:54:35.812Z,12.00
2018-02-19T11:57:02.068Z,12.00
2018-02-19T11:59:28.328Z,14.70
2018-02-19T12:01:54.584Z,16.10
2018-02-19T12:04:21.608Z,16.50
2018-02-19T12:06:47.878Z,16.50
2018-02-19T12:09:14.189Z,18.80
2018-02-19T12:11:41.216Z,19.40
2018-02-19T12:14:07.528Z,19.30
2018-02-19T12:16:33.762Z,18.40
2018-02-19T12:19:00.067Z,19.80
2018-02-19T12:21:26.333Z,18.40
2018-02-19T12:23:52.609Z,17.20
2018-02-19T12:26:18.905Z,15.90
2018-02-19T12:28:45.166Z,15.50
2018-02-19T12:31:11.418Z,15.50
2018-02-19T12:33:37.647Z,14.80
2018-02-19T12:36:03.873Z,13.90
2018-02-19T12:38:30.140Z,13.60
2018-02-19T12:40:56.415Z,13.90
2018-02-19T12:43:22.679Z,14.10
2018-02-19T12:45:48.956Z,13.50
2018-02-19T12:48:15.983Z,13.90
2018-02-19T12:50:42.262Z,13.90
2018-02-19T12:53:08.544Z,13.50
2018-02-19T12:55:34.786Z,14.70
2018-02-19T12:58:01.763Z,16.50
2018-02-19T13:00:28.110Z,16.50
2018-02-19T13:02:54.376Z,15.00
2018-02-19T13:05:20.612Z,13.70
2018-02-19T13:07:46.943Z,13.20
2018-02-19T13:10:13.208Z,13.60
2018-02-19T13:12:39.519Z,12.80
2018-02-19T13:15:06.588Z,12.50
2018-02-19T13:17:33.540Z,11.70
2018-02-19T13:19:59.797Z,11.60
2018-02-19T13:22:26.095Z,11.20
2018-02-19T13:24:52.355Z,11.30
2018-02-19T13:27:18.619Z,11.70
2018-02-19T13:29:45.732Z,11.00
2018-02-19T13:32:12.739Z,10.80
2018-02-19T13:34:39.006Z,10.80
2018-02-19T13:37:05.261Z,11.00
2018-02-19T13:39:31.537Z,10.50
2018-02-19T13:41:57.804Z,10.90
2018-02-19T13:44:24.054Z,11.50
2018-02-19T13:46:50.355Z,12.60
2018-02-19T13:49:16.626Z,11.90
2018-02-19T13:51:43.621Z,13.10
2018-02-19T13:54:09.876Z,13.10
2018-02-19T13:56:36.162Z,13.50
2018-02-19T13:59:02.428Z,12.90
2018-02-19T14:01:28.708Z,12.20
2018-02-19T14:03:55.756Z,12.60
2018-02-19T14:06:22.795Z,12.70
2018-02-19T14:08:49.833Z,11.50
2018-02-19T14:11:16.130Z,11.50
2018-02-19T14:13:42.433Z,11.50
2018-02-19T14:16:08.706Z,11.30
2018-02-19T14:18:34.977Z,11.40
2018-02-19T14:21:01.253Z,10.50
2018-02-19T14:23:27.541Z,10.50
2018-02-19T14:25:53.844Z,11.00
2018-02-19T14:28:20.861Z,11.30
2018-02-19T14:30:47.128Z,11.30
2018-02-19T14:33:13.406Z,10.90
2018-02-19T14:35:39.682Z,11.50
2018-02-19T14:38:05.934Z,11.00
2018-02-19T14:40:32.952Z,10.50
2018-02-19T14:42:59.318Z,10.50
2018-02-19T14:45:25.599Z,9.90
2018-02-19T14:47:51.844Z,10.30
2018-02-19T14:50:18.139Z,10.40
2018-02-19T14:52:44.402Z,10.50
2018-02-19T14:55:10.657Z,9.70
2018-02-19T14:57:37.680Z,10.80
2018-02-19T15:00:03.926Z,10.70
2018-02-19T15:02:30.895Z,9.50
2018-02-19T15:04:57.203Z,9.50
2018-02-19T15:07:24.181Z,8.50
2018-02-19T15:09:50.415Z,8.50
2018-02-19T15:12:16.647Z,8.60
2018-02-19T15:14:42.866Z,8.60
2018-02-19T15:17:09.141Z,8.40
2018-02-19T15:19:36.148Z,7.70
2018-02-19T15:22:02.399Z,7.70
2018-02-19T15:24:28.650Z,7.60
2018-02-19T15:26:54.898Z,7.30
2018-02-19T15:29:21.887Z,6.90
2018-02-19T15:31:48.154Z,6.90
2018-02-19T15:34:14.472Z,6.70
2018-02-19T15:36:40.735Z,6.50
2018-02-19T15:39:07.800Z,6.70
2018-02-19T15:41:34.040Z,6.70
2018-02-19T15:44:00.306Z,6.60
2018-02-19T15:46:26.599Z,6.40
2018-02-19T15:48:52.854Z,6.30
2018-02-19T15:51:19.120Z,6.10
2018-02-19T15:53:45.366Z,6.10
2018-02-19T15:56:11.611Z,5.80
2018-02-19T15:58:37.932Z,5.40
2018-02-19T16:01:04.972Z,5.40
2018-02-19T16:03:32.019Z,5.30
2018-02-19T16:05:58.994Z,5.10
2018-02-19T16:08:25.264Z,5.10
2018-02-19T16:10:51.526Z,5.00
2018-02-19T16:13:18.529Z,4.80
2018-02-19T16:15:44.778Z,4.80
2018-02-19T16:18:11.964Z,4.70
2018-02-19T16:20:38.220Z,4.60
2018-02-19T16:23:04.478Z,4.40
2018-02-19T16:25:30.760Z,4.30
2018-02-19T16:27:57.185Z,4.10
2018-02-19T16:30:24.171Z,3.90
2018-02-19T16:32:50.405Z,3.90
2018-02-19T16:35:16.651Z,3.80
2018-02-19T16:37:42.891Z,3.70
2018-02-19T16:40:09.135Z,3.60
2018-02-19T16:42:36.149Z,3.50
2018-02-19T16:45:02.415Z,3.50
2018-02-19T16:47:29.455Z,3.40
2018-02-19T16:49:55.727Z,3.30
2018-02-19T16:52:34.596Z,3.20
2018-02-19T16:55:00.961Z,3.10
2018-02-19T16:57:28.044Z,2.90
2018-02-19T16:59:54.317Z,2.90
2018-02-19T17:02:20.628Z,2.80
2018-02-19T17:04:46.941Z,2.70
2018-02-19T17:07:13.202Z,2.50
2018-02-19T17:09:39.644Z,2.40
2018-02-19T17:12:05.930Z,2.40
2018-02-19T17:14:32.184Z,2.30
2018-02-19T17:16:58.484Z,2.40
2018-02-19T17:19:24.753Z,2.30
2018-02-19T17:21:51.059Z,2.30
2018-02-19T17:24:17.323Z,2.20
2018-02-19T17:26:43.568Z,2.20
2018-02-19T17:29:10.575Z,2.10
2018-02-19T17:31:36.864Z,2.10
2018-02-19T17:34:03.130Z,2.10
2018-02-19T17:36:29.395Z,2.20
2018-02-19T17:38:56.387Z,2.20
2018-02-19T17:41:22.667Z,2.20
2018-02-19T17:43:48.894Z,2.20
2018-02-19T17:46:15.135Z,2.20
2018-02-19T17:48:42.155Z,2.10
2018-02-19T17:51:08.408Z,2.10
2018-02-19T17:53:35.561Z,2.00
2018-02-19T17:56:02.576Z,2.00
2018-02-19T17:58:28.856Z,2.00
2018-02-19T18:00:55.210Z,2.00
2018-02-19T18:03:21.484Z,2.00
2018-02-19T18:05:54.695Z,2.00
2018-02-19T18:08:21.713Z,1.90
2018-02-19T18:10:47.968Z,1.90
2018-02-19T18:13:14.976Z,1.80
2018-02-19T18:15:41.294Z,1.80
2018-02-19T18:18:07.548Z,1.70
2018-02-19T18:20:33.797Z,1.70
2018-02-19T18:23:00.070Z,1.60
2018-02-19T18:25:26.470Z,1.60
2018-02-19T18:27:53.499Z,1.50
2018-02-19T18:30:19.772Z,1.40
2018-02-19T18:32:46.036Z,1.30
2018-02-19T18:35:12.388Z,1.20
2018-02-19T18:37:39.677Z,1.30
2018-02-19T18:40:06.029Z,1.30
2018-02-19T18:42:32.479Z,1.30
2018-02-19T18:44:59.830Z,1.30
2018-02-19T18:47:26.146Z,1.40
2018-02-19T18:49:52.482Z,1.40
2018-02-19T18:52:18.750Z,1.30
2018-02-19T18:54:45.280Z,1.20
2018-02-19T18:57:11.847Z,1.10
2018-02-19T18:59:39.134Z,1.00
2018-02-19T19:02:05.565Z,1.10
2018-02-19T19:04:31.906Z,1.10
2018-02-19T19:06:58.185Z,1.10
2018-02-19T19:09:43.158Z,1.10
2018-02-19T19:12:10.174Z,1.10
2018-02-19T19:14:36.470Z,1.10
2018-02-19T19:17:02.777Z,1.00
2018-02-19T19:19:29.803Z,1.00
2018-02-19T19:21:56.100Z,1.00
2018-02-19T19:24:22.442Z,1.00
2018-02-19T19:26:48.785Z,0.90
2018-02-19T19:29:15.064Z,0.90
2018-02-19T19:31:41.348Z,0.90
2018-02-19T19:34:07.626Z,0.90
2018-02-19T19:36:33.976Z,0.90
2018-02-19T19:39:00.400Z,0.70
2018-02-19T19:41:26.670Z,0.70
2018-02-19T19:43:52.934Z,0.70
2018-02-19T19:46:20.221Z,0.60
2018-02-19T19:48:46.511Z,0.60
2018-02-19T19:51:13.518Z,0.70
2018-02-19T19:53:39.802Z,0.70
2018-02-19T19:56:06.871Z,0.70
2018-02-19T19:58:34.151Z,0.60
2018-02-19T20:01:00.468Z,0.50
2018-02-19T20:03:26.755Z,0.60
2018-02-19T20:05:53.793Z,0.50
2018-02-19T20:08:20.061Z,0.50
2018-02-19T20:10:46.390Z,0.60
2018-02-19T20:13:13.441Z,0.70
2018-02-19T20:15:39.823Z,0.70
2018-02-19T20:18:06.082Z,0.70
2018-02-19T20:20:33.148Z,0.70
2018-02-19T20:22:59.544Z,0.60
2018-02-19T20:25:25.840Z,0.70
2018-02-19T20:27:52.142Z,0.60
2018-02-19T20:30:18.458Z,0.70
2018-02-19T20:32:44.744Z,0.70
2018-02-19T20:35:11.025Z,0.70
2018-02-19T20:37:37.359Z,0.60
2018-02-19T20:40:03.639Z,0.60
2018-02-19T20:42:29.925Z,0.60
2018-02-19T20:44:56.188Z,0.50
2018-02-19T20:47:22.581Z,0.50
2018-02-19T20:49:48.848Z,0.50
2018-02-19T20:52:15.139Z,0.40
2018-02-19T20:54:41.537Z,0.40
2018-02-19T20:57:08.619Z,0.30
2018-02-19T20:59:34.945Z,0.30
2018-02-19T21:02:01.959Z,0.30
2018-02-19T21:04:28.259Z,0.20
2018-02-19T21:06:54.541Z,0.20
2018-02-19T21:09:21.549Z,0.20
2018-02-19T21:11:47.928Z,0.10
2018-02-19T21:14:14.926Z,0.20
2018-02-19T21:16:41.206Z,0.20
2018-02-19T21:19:15.255Z,0.20
2018-02-19T21:21:41.518Z,0.10
2018-02-19T21:24:07.786Z,0.10
2018-02-19T21:26:34.131Z,0.10
2018-02-19T21:29:00.546Z,0.10
2018-02-19T21:31:26.829Z,0.10
2018-02-19T21:33:53.125Z,0.10
2018-02-19T21:36:19.403Z,0.10
2018-02-19T21:38:45.796Z,0.10
2018-02-19T21:41:12.070Z,0.10
2018-02-19T21:43:38.325Z,0.10
2018-02-19T21:46:05.380Z,0.10
2018-02-19T21:48:31.638Z,0.10
2018-02-19T21:50:58.708Z,0.10
2018-02-19T21:53:24.988Z,0.10
2018-02-19T21:55:51.288Z,0.10
2018-02-19T21:58:17.544Z,0.10
2018-02-19T22:00:44.580Z,0.10
2018-02-19T22:03:11.608Z,0.10
2018-02-19T22:05:37.949Z,0.00
2018-02-19T22:08:04.213Z,0.00
2018-02-19T22:10:30.473Z,0.00
2018-02-19T22:12:56.723Z,-0.10
2018-02-19T22:15:22.989Z,-0.10
2018-02-19T22:17:50.003Z,-0.10
2018-02-19T22:20:16.263Z,-0.10
2018-02-19T22:22:43.247Z,-0.10
2018-02-19T22:25:09.524Z,-0.10
2018-02-19T22:27:36.553Z,-0.20
2018-02-19T22:30:02.821Z,-0.20
2018-02-19T22:32:29.826Z,-0.20
2018-02-19T22:34:56.086Z,-0.20
2018-02-19T22:37:23.133Z,-0.20
2018-02-19T22:39:50.174Z,-0.30
2018-02-19T22:42:17.177Z,-0.20
2018-02-19T22:44:43.424Z,-0.30
2018-02-19T22:47:09.725Z,-0.20
2018-02-19T22:49:35.972Z,-0.30
2018-02-19T22:52:02.226Z,-0.30
2018-02-19T22:54:28.502Z,-0.30
2018-02-19T22:56:54.745Z,-0.40
2018-02-19T22:59:21.045Z,-0.50
2018-02-19T23:01:48.035Z,-0.60
2018-02-19T23:04:14.331Z,-0.70
2018-02-19T23:06:40.595Z,-0.60
2018-02-19T23:09:06.875Z,-0.60
2018-02-19T23:11:33.857Z,-0.70
2018-02-19T23:14:00.144Z,-0.70
2018-02-19T23:16:27.135Z,-0.80
2018-02-19T23:18:53.431Z,-0.80
2018-02-19T23:21:20.460Z,-0.90
2018-02-19T23:23:46.730Z,-0.90
2018-02-19T23:26:13.008Z,-0.90
2018-02-19T23:28:39.306Z,-1.00
2018-02-19T23:31:05.586Z,-1.00
2018-02-19T23:33:32.553Z,-1.00
2018-02-19T23:35:59.638Z,-1.00
2018-02-19T23:38:25.930Z,-1.00
2018-02-19T23:40:52.964Z,-1.00
2018-02-19T23:43:19.974Z,-1.10
2018-02-19T23:45:46.225Z,-1.10
2018-02-19T23:48:12.500Z,-1.10
2018-02-19T23:50:38.783Z,-1.10
2018-02-19T23:53:05.065Z,-1.20
2018-02-19T23:55:31.343Z,-1.10
2018-02-19T23:57:57.625Z,-1.10
